Time;durP1;ratioP1;P1;durP2;ratioP2;P2;SDS_P1;SDS_P2;PMS_P1;PMS_P2;Temp;Humidity;BMP_temperature;BMP_pressure;BME280_temperature;BME280_humidity;BME280_pressure;Samples;Min_cycle;Max_cycle;Signal;HPM_P1;HPM_P2
2022/05/27 04:19:50;;;;;;;;;;;;;;;19.85;100.00;98648.06;4902011;29;19954;-73
2022/05/27 04:22:17;;;;;;;;;;;;;;;19.95;100.00;98649.78;4901015;29;20368;-73
2022/05/27 04:24:44;;;;;;;;;;;;;;;20.03;100.00;98656.00;4921104;29;19955;-73
2022/05/27 04:27:13;;;;;;;;;;;;;;;20.13;100.00;98643.53;4911152;29;19956;-73
2022/05/27 04:29:42;;;;;;;;;;;;;;;20.24;100.00;98639.16;4916137;29;19948;-73
2022/05/27 04:32:09;;;;;;;;;;;;;;;20.36;100.00;98648.13;4911941;29;20212;-73
2022/05/27 04:34:37;;;;;;;;;;;;;;;20.52;100.00;98643.09;4901868;29;19950;-73
2022/05/27 04:37:04;;;;;;;;;;;;;;;20.70;100.00;98646.16;4902355;29;19972;-73
2022/05/27 04:39:31;;;;;;;;;;;;;;;20.93;100.00;98647.81;4902476;29;19944;-73
2022/05/27 04:41:59;;;;;;;;;;;;;;;21.12;100.00;98658.13;4902021;29;19953;-73
2022/05/27 04:44:26;;;;;;;;;;;;;;;21.32;100.00;98657.81;4902325;29;19948;-73
2022/05/27 04:46:54;;;;;;;;;;;;;;;21.48;100.00;98658.44;4902057;29;20253;-73
2022/05/27 04:52:07;;;;;;;;;;;;;;;21.95;100.00;98664.00;4903255;29;19950;-73
2022/05/27 04:54:34;;;;;;;;;;;;;;;22.21;100.00;98658.91;4907311;29;20367;-73
2022/05/27 04:57:02;;;;;;;;;;;;;;;22.38;100.00;98668.78;4908306;29;19979;-73
2022/05/27 04:59:30;;;;;;;;;;;;;;;22.52;100.00;98668.22;4920715;29;19951;-73
2022/05/27 05:01:57;;;;;;;;;;;;;;;22.63;100.00;98671.47;4911298;29;19952;-73
2022/05/27 05:04:24;;;;;;;;;;;;;;;22.61;100.00;98664.63;4910605;29;20242;-73
2022/05/27 05:06:51;;;;;;;;;;;;;;;22.57;100.00;98669.69;4920898;29;19959;-73
2022/05/27 05:09:19;;;;;;;;;;;;;;;22.61;100.00;98674.00;4919775;29;19953;-73
2022/05/27 05:11:46;;;;;;;;;;;;;;;22.68;100.00;98670.84;4920439;29;19945;-72
2022/05/27 05:14:14;;;;;;;;;;;;;;;22.82;100.00;98660.91;4918956;29;19963;-72
2022/05/27 05:16:41;;;;;;;;;;;;;;;23.00;100.00;98668.72;4920533;29;19968;-72
2022/05/27 05:19:08;;;;;;;;;;;;;;;23.17;100.00;98675.69;4920669;29;19949;-72
2022/05/27 05:21:36;;;;;;;;;;;;;;;23.32;100.00;98670.97;4920858;29;20331;-72
2022/05/27 05:24:04;;;;;;;;;;;;;;;23.34;100.00;98683.50;4920899;29;19951;-71
2022/05/27 05:26:31;;;;;;;;;;;;;;;23.36;100.00;98685.88;4910375;29;20248;-72
2022/05/27 05:28:58;;;;;;;;;;;;;;;23.37;100.00;98688.28;4917275;29;19948;-72
2022/05/27 05:31:26;;;;;;;;;;;;;;;23.41;100.00;98693.81;4913557;29;19949;-72
2022/05/27 05:33:58;;;;;;;;;;;;;;;23.26;100.00;98701.38;4918861;29;19954;-72
2022/05/27 05:36:26;;;;;;;;;;;;;;;23.34;100.00;98691.25;4904962;29;20330;-72
2022/05/27 05:38:54;;;;;;;;;;;;;;;23.39;100.00;98700.03;4908840;29;20249;-71
2022/05/27 05:41:32;;;;;;;;;;;;;;;23.49;100.00;98698.75;4901076;29;19961;-71
2022/05/27 05:43:59;;;;;;;;;;;;;;;23.52;100.00;98708.44;4904919;29;19958;-72
2022/05/27 05:46:27;;;;;;;;;;;;;;;23.47;100.00;98712.69;4921551;29;19948;-72
2022/05/27 05:48:54;;;;;;;;;;;;;;;23.49;100.00;98707.31;4910169;29;19967;-72
2022/05/27 05:51:22;;;;;;;;;;;;;;;23.51;100.00;98707.63;4909076;29;19955;-72
2022/05/27 05:53:49;;;;;;;;;;;;;;;23.45;100.00;98706.66;4918974;29;19978;-72
2022/05/27 05:56:16;;;;;;;;;;;;;;;23.48;100.00;98713.50;4912851;29;20514;-72
2022/05/27 05:58:44;;;;;;;;;;;;;;;23.50;100.00;98708.88;4913625;29;20384;-72
2022/05/27 06:01:11;;;;;;;;;;;;;;;23.46;100.00;98710.31;4919975;29;19947;-72
2022/05/27 06:03:38;;;;;;;;;;;;;;;23.44;100.00;98713.66;4901703;29;19963;-72
2022/05/27 06:06:05;;;;;;;;;;;;;;;23.44;100.00;98725.06;4914694;29;19950;-72
2022/05/27 06:08:33;;;;;;;;;;;;;;;23.46;100.00;98722.53;4913276;29;19949;-72
2022/05/27 06:11:00;;;;;;;;;;;;;;;23.49;100.00;98717.94;4919433;29;19950;-72
2022/05/27 06:13:28;;;;;;;;;;;;;;;23.52;100.00;98712.06;4920259;29;19948;-72
2022/05/27 06:15:55;;;;;;;;;;;;;;;23.61;100.00;98714.13;4923132;29;19948;-72
2022/05/27 06:18:22;;;;;;;;;;;;;;;23.55;100.00;98715.25;4922977;29;19973;-72
2022/05/27 06:20:50;;;;;;;;;;;;;;;23.60;100.00;98708.91;4922917;29;19948;-72
2022/05/27 06:23:17;;;;;;;;;;;;;;;23.71;100.00;98700.66;4913887;29;19967;-72
2022/05/27 06:25:44;;;;;;;;;;;;;;;23.73;100.00;98710.31;4900154;29;19956;-72
2022/05/27 06:36:31;;;;;;;;;;;;;;;24.04;100.00;98730.13;4922857;29;19956;-72
2022/05/27 06:38:58;;;;;;;;;;;;;;;24.18;100.00;98733.13;4922208;29;19976;-72
2022/05/27 06:41:26;;;;;;;;;;;;;;;24.22;100.00;98737.91;4922680;29;20332;-72
2022/05/27 06:43:55;;;;;;;;;;;;;;;24.31;100.00;98740.72;4921414;29;19957;-72
2022/05/27 06:46:22;;;;;;;;;;;;;;;24.43;100.00;98731.97;4921774;29;19978;-72
2022/05/27 06:48:50;;;;;;;;;;;;;;;24.41;100.00;98734.53;4921535;29;19975;-72
2022/05/27 06:51:20;;;;;;;;;;;;;;;24.33;100.00;98736.13;4922079;29;19950;-72
2022/05/27 06:53:47;;;;;;;;;;;;;;;24.40;100.00;98743.59;4922317;29;19950;-72
2022/05/27 06:56:15;;;;;;;;;;;;;;;24.42;100.00;98738.97;4922125;29;20247;-72
2022/05/27 06:58:43;;;;;;;;;;;;;;;24.56;100.00;98740.34;4921756;29;20330;-72
2022/05/27 07:01:11;;;;;;;;;;;;;;;24.59;100.00;98740.19;4922237;29;19949;-72
2022/05/27 07:03:38;;;;;;;;;;;;;;;24.53;100.00;98738.44;4922176;29;20274;-72
2022/05/27 07:06:10;;;;;;;;;;;;;;;24.61;100.00;98740.50;4922349;29;19948;-72
2022/05/27 07:08:38;;;;;;;;;;;;;;;24.51;100.00;98733.22;4921724;29;19957;-72
2022/05/27 07:11:06;;;;;;;;;;;;;;;24.59;100.00;98736.53;4921922;29;19948;-72
2022/05/27 07:13:33;;;;;;;;;;;;;;;24.76;100.00;98737.75;4922545;29;19976;-72
2022/05/27 07:16:00;;;;;;;;;;;;;;;24.91;100.00;98737.88;4921727;29;19952;-72
2022/05/27 07:18:28;;;;;;;;;;;;;;;25.06;100.00;98733.81;4922113;29;19978;-72
2022/05/27 07:20:59;;;;;;;;;;;;;;;25.14;100.00;98734.22;4913294;29;20376;-72
2022/05/27 07:23:26;;;;;;;;;;;;;;;25.12;100.00;98731.06;4902755;29;19956;-72
2022/05/27 07:25:54;;;;;;;;;;;;;;;25.14;100.00;98731.38;4902772;29;20253;-72
2022/05/27 07:28:21;;;;;;;;;;;;;;;25.29;100.00;98727.31;4902962;29;19952;-72
2022/05/27 07:30:48;;;;;;;;;;;;;;;25.32;100.00;98723.47;4902985;29;19950;-72
2022/05/27 07:33:15;;;;;;;;;;;;;;;25.14;100.00;98719.91;4911501;29;20236;-72
2022/05/27 07:35:43;;;;;;;;;;;;;;;25.00;100.00;98723.50;4922107;29;19962;-72
2022/05/27 07:38:10;;;;;;;;;;;;;;;24.90;100.00;98724.81;4910715;29;19968;-72
2022/05/27 07:40:38;;;;;;;;;;;;;;;24.82;100.00;98723.63;4906556;29;19955;-72
2022/05/27 07:43:07;;;;;;;;;;;;;;;24.64;100.00;98715.88;4901557;29;20415;-72
2022/05/27 07:45:38;;;;;;;;;;;;;;;24.84;100.00;98721.06;4902070;29;19949;-72
2022/05/27 07:48:05;;;;;;;;;;;;;;;25.06;100.00;98716.66;4902099;29;19985;-72
2022/05/27 07:50:33;;;;;;;;;;;;;;;25.14;100.00;98709.25;4901921;29;19952;-72
2022/05/27 07:53:00;;;;;;;;;;;;;;;25.29;100.00;98703.59;4902974;29;20330;-72
2022/05/27 07:55:27;;;;;;;;;;;;;;;25.23;100.00;98703.50;4902881;29;19951;-72
2022/05/27 07:57:54;;;;;;;;;;;;;;;25.40;100.00;98709.59;4902017;29;20059;-72
2022/05/27 08:00:24;;;;;;;;;;;;;;;25.37;100.00;98701.97;4902210;29;19953;-72
2022/05/27 08:02:52;;;;;;;;;;;;;;;25.37;100.00;98702.75;4917528;29;19958;-73
2022/05/27 08:05:20;;;;;;;;;;;;;;;25.31;100.00;98703.91;4920181;29;19955;-72
2022/05/27 08:07:48;;;;;;;;;;;;;;;25.21;100.00;98696.69;4909403;29;20386;-72
2022/05/27 08:10:18;;;;;;;;;;;;;;;25.18;100.00;98694.78;4901799;29;19954;-72
2022/05/27 08:12:45;;;;;;;;;;;;;;;25.25;100.00;98694.41;4912580;29;19959;-72
2022/05/27 08:15:13;;;;;;;;;;;;;;;25.48;100.00;98690.00;4904603;29;19960;-72
2022/05/27 08:17:41;;;;;;;;;;;;;;;25.41;100.00;98688.25;4919736;29;19973;-72
2022/05/27 08:20:10;;;;;;;;;;;;;;;25.58;100.00;98688.66;4919653;29;20245;-72
2022/05/27 08:22:37;;;;;;;;;;;;;;;25.67;100.00;98686.50;4903602;29;19955;-72
2022/05/27 08:25:04;;;;;;;;;;;;;;;25.86;100.00;98687.09;4920429;29;20217;-72
2022/05/27 08:27:32;;;;;;;;;;;;;;;26.02;100.00;98687.41;4920465;29;19979;-72
2022/05/27 08:29:59;;;;;;;;;;;;;;;25.97;100.00;98682.38;4920329;29;20251;-73
2022/05/27 08:32:26;;;;;;;;;;;;;;;25.70;100.00;98667.53;4920192;29;19947;-72
2022/05/27 08:40:44;;;;;;;;;;;;;;;25.44;100.00;98681.53;4890689;29;20361;-72
2022/05/27 08:43:23;;;;;;;;;;;;;;;25.50;100.00;98681.69;4903107;29;20339;-72
2022/05/27 08:46:02;;;;;;;;;;;;;;;25.18;100.00;98684.13;4908208;29;19956;-72
2022/05/27 08:48:32;;;;;;;;;;;;;;;25.18;100.00;98666.97;4901423;29;19955;-72
2022/05/27 08:51:04;;;;;;;;;;;;;;;25.40;100.00;98667.44;4901263;29;19950;-72
2022/05/27 08:53:32;;;;;;;;;;;;;;;25.74;100.00;98666.06;4907811;29;19958;-73
2022/05/27 09:01:40;;;;;;;;;;;;;;;25.94;100.00;98665.38;4900827;29;19951;-72
2022/05/27 09:04:17;;;;;;;;;;;;;;;26.14;100.00;98665.50;4888049;29;19959;-72
2022/05/27 09:06:49;;;;;;;;;;;;;;;26.17;100.00;98660.84;4901372;29;19957;-72
2022/05/27 09:09:19;;;;;;;;;;;;;;;26.00;100.00;98654.78;4911989;29;19949;-72
2022/05/27 09:12:05;;;;;;;;;;;;;;;26.21;100.00;98650.78;4934170;29;19954;-72
2022/05/27 09:14:35;;;;;;;;;;;;;;;26.42;100.00;98660.25;4939116;29;19955;-73
2022/05/27 09:17:07;;;;;;;;;;;;;;;26.15;100.00;98661.34;4938351;29;19989;-72
2022/05/27 09:19:48;;;;;;;;;;;;;;;25.95;100.00;98656.28;4925517;29;19982;-72
2022/05/27 09:22:15;;;;;;;;;;;;;;;26.10;100.00;98659.94;4936825;29;19961;-72
2022/05/27 09:25:01;;;;;;;;;;;;;;;25.55;100.00;98655.25;4919456;29;20247;-72
2022/05/27 09:27:35;;;;;;;;;;;;;;;25.60;100.00;98645.97;4919705;29;19958;-73
2022/05/27 09:30:13;;;;;;;;;;;;;;;25.84;100.00;98640.97;4919872;29;19960;-72
2022/05/27 09:32:43;;;;;;;;;;;;;;;26.15;100.00;98647.03;4906373;29;19951;-72
2022/05/27 09:35:12;;;;;;;;;;;;;;;25.95;100.00;98644.81;4901237;29;19960;-72
2022/05/27 09:38:01;;;;;;;;;;;;;;;25.89;100.00;98637.41;4902886;29;19947;-72
2022/05/27 09:40:28;;;;;;;;;;;;;;;25.90;100.00;98645.50;4901591;29;20237;-72
2022/05/27 09:42:58;;;;;;;;;;;;;;;25.97;100.00;98638.59;4901376;29;19966;-72
2022/05/27 09:45:25;;;;;;;;;;;;;;;26.04;100.00;98641.84;4900943;29;19962;-72
2022/05/27 09:47:57;;;;;;;;;;;;;;;26.18;100.00;98636.66;4904448;29;19957;-72
2022/05/27 09:50:41;;;;;;;;;;;;;;;26.22;100.00;98631.50;4917820;29;19943;-72
2022/05/27 09:53:13;;;;;;;;;;;;;;;26.20;100.00;98634.06;4908656;29;20246;-72
2022/05/27 09:55:46;;;;;;;;;;;;;;;26.21;100.00;98632.78;4904675;29;19951;-72
2022/05/27 09:58:21;;;;;;;;;;;;;;;26.18;100.00;98628.84;4904773;29;20293;-72
2022/05/27 10:00:49;;;;;;;;;;;;;;;26.30;100.00;98622.00;4904772;29;19949;-73
2022/05/27 10:03:19;;;;;;;;;;;;;;;26.37;100.00;98621.59;4904756;29;20411;-73
2022/05/27 10:05:51;;;;;;;;;;;;;;;26.20;100.00;98611.13;4904732;29;19984;-73
2022/05/27 10:08:28;;;;;;;;;;;;;;;26.22;100.00;98617.94;4904790;29;19969;-72
2022/05/27 10:11:09;;;;;;;;;;;;;;;26.21;100.00;98610.66;4907723;29;19946;-72
2022/05/27 10:13:39;;;;;;;;;;;;;;;26.28;100.00;98603.72;4923297;29;19955;-72
2022/05/27 10:16:11;;;;;;;;;;;;;;;26.41;100.00;98604.97;4922946;29;20384;-72
2022/05/27 10:18:42;;;;;;;;;;;;;;;26.24;100.00;98601.03;4923019;29;19976;-72
2022/05/27 10:21:12;;;;;;;;;;;;;;;26.42;100.00;98602.88;4926876;29;19946;-72
2022/05/27 10:23:45;;;;;;;;;;;;;;;26.32;100.00;98587.09;4932015;29;20028;-72
2022/05/27 10:26:18;;;;;;;;;;;;;;;26.53;100.00;98586.63;4913469;29;19953;-72
2022/05/27 10:28:55;;;;;;;;;;;;;;;26.43;100.00;98581.53;4904546;29;19966;-72
2022/05/27 10:31:24;;;;;;;;;;;;;;;26.53;100.00;98585.88;4908407;29;19954;-70
2022/05/27 10:33:53;;;;;;;;;;;;;;;26.69;100.00;98577.50;4913384;29;19955;-71
2022/05/27 10:36:39;;;;;;;;;;;;;;;26.77;100.00;98577.09;4903911;29;19961;-72
2022/05/27 10:39:11;;;;;;;;;;;;;;;26.80;100.00;98571.13;4904448;29;20391;-72
2022/05/27 10:41:45;;;;;;;;;;;;;;;26.86;100.00;98571.22;4906311;29;19952;-72
2022/05/27 10:44:15;;;;;;;;;;;;;;;26.63;100.00;98570.13;4907602;29;19957;-72
2022/05/27 10:46:48;;;;;;;;;;;;;;;26.59;100.00;98563.78;4922522;29;19951;-72
2022/05/27 10:49:36;;;;;;;;;;;;;;;26.72;100.00;98569.97;4920905;29;19959;-72
2022/05/27 10:52:12;;;;;;;;;;;;;;;26.71;100.00;98560.56;4906745;29;19952;-72
2022/05/27 10:54:48;;;;;;;;;;;;;;;26.52;100.00;98561.34;4895842;29;19977;-70
2022/05/27 11:03:19;;;;;;;;;;;;;;;26.71;100.00;98556.91;4920921;29;20347;-72
2022/05/27 11:05:57;;;;;;;;;;;;;;;26.86;100.00;98548.25;4918009;29;20354;-72
2022/05/27 11:08:25;;;;;;;;;;;;;;;27.06;100.00;98551.13;4917475;29;19950;-72
2022/05/27 11:11:04;;;;;;;;;;;;;;;26.98;100.00;98539.28;4906492;29;19952;-72
2022/05/27 11:17:00;;;;;;;;;;;;;;;26.85;100.00;98523.75;4905501;29;19957;-72
2022/05/27 11:19:27;;;;;;;;;;;;;;;26.65;100.00;98521.63;4895513;29;19961;-72
2022/05/27 11:22:17;;;;;;;;;;;;;;;26.66;100.00;98514.59;4903875;29;20289;-72
2022/05/27 11:24:45;;;;;;;;;;;;;;;26.76;100.00;98509.50;4919395;29;19951;-72
2022/05/27 11:27:21;;;;;;;;;;;;;;;26.86;100.00;98508.88;4921123;29;19950;-72
2022/05/27 11:30:09;;;;;;;;;;;;;;;26.87;100.00;98501.84;4908188;29;20251;-72
2022/05/27 11:32:56;;;;;;;;;;;;;;;26.89;100.00;98493.53;4866385;29;19958;-73
2022/05/27 11:35:42;;;;;;;;;;;;;;;26.99;100.00;98489.22;4875957;29;19954;-72
2022/05/27 11:38:10;;;;;;;;;;;;;;;27.14;100.00;98489.88;4922191;29;19949;-72
2022/05/27 11:40:49;;;;;;;;;;;;;;;27.23;100.00;98491.81;4921356;29;20236;-72
2022/05/27 11:43:28;;;;;;;;;;;;;;;27.28;100.00;98485.34;4920973;29;19952;-72
2022/05/27 11:45:55;;;;;;;;;;;;;;;27.38;100.00;98486.78;4919981;29;19959;-72
2022/05/27 11:48:30;;;;;;;;;;;;;;;27.07;100.00;98487.47;4921294;29;19953;-72
2022/05/27 11:51:23;;;;;;;;;;;;;;;27.09;100.00;98475.50;4920713;29;19958;-72
2022/05/27 11:54:11;;;;;;;;;;;;;;;26.93;100.00;98468.25;4906151;29;19950;-72
2022/05/27 11:56:52;;;;;;;;;;;;;;;27.05;100.00;98466.28;4917592;29;19949;-72
2022/05/27 11:59:25;;;;;;;;;;;;;;;27.29;100.00;98463.97;4920876;29;19973;-72
2022/05/27 12:01:59;;;;;;;;;;;;;;;27.32;100.00;98463.72;4909314;29;19956;-72
2022/05/27 12:04:35;;;;;;;;;;;;;;;27.41;100.00;98454.19;4902764;29;20243;-72
2022/05/27 12:07:26;;;;;;;;;;;;;;;27.37;100.00;98447.81;4902906;29;19951;-72
2022/05/27 12:10:12;;;;;;;;;;;;;;;27.47;100.00;98445.59;4895279;29;19951;-72
2022/05/27 12:12:54;;;;;;;;;;;;;;;27.73;100.00;98443.47;4915942;29;19957;-72
2022/05/27 12:15:24;;;;;;;;;;;;;;;27.69;100.00;98434.28;4918653;29;19950;-72
2022/05/27 12:17:53;;;;;;;;;;;;;;;27.89;100.00;98439.94;4902674;29;19979;-72
2022/05/27 12:20:23;;;;;;;;;;;;;;;27.73;100.00;98440.59;4910148;29;19961;-72
2022/05/27 12:22:52;;;;;;;;;;;;;;;27.95;100.00;98432.91;4904174;29;19963;-72
2022/05/27 12:25:21;;;;;;;;;;;;;;;27.86;100.00;98430.25;4902372;29;19947;-72
2022/05/27 12:27:50;;;;;;;;;;;;;;;27.73;100.00;98427.00;4907512;29;19949;-72
2022/05/27 12:30:19;;;;;;;;;;;;;;;27.77;100.00;98427.56;4902092;29;19953;-72
2022/05/27 12:32:47;;;;;;;;;;;;;;;27.66;100.00;98427.47;4902278;29;19958;-72
2022/05/27 12:35:22;;;;;;;;;;;;;;;27.73;100.00;98426.25;4902248;29;20368;-72
2022/05/27 12:37:51;;;;;;;;;;;;;;;27.48;100.00;98424.19;4917251;29;20326;-72
2022/05/27 12:40:18;;;;;;;;;;;;;;;27.56;100.00;98420.34;4919808;29;19966;-72
2022/05/27 12:42:51;;;;;;;;;;;;;;;27.39;100.00;98413.66;4919905;29;19956;-72
2022/05/27 12:45:18;;;;;;;;;;;;;;;27.40;100.00;98412.38;4919604;29;19951;-72
2022/05/27 12:47:48;;;;;;;;;;;;;;;27.40;100.00;98408.72;4920300;29;19955;-72
2022/05/27 12:50:21;;;;;;;;;;;;;;;27.28;100.00;98404.94;4902956;29;19952;-72
2022/05/27 12:52:48;;;;;;;;;;;;;;;27.23;100.00;98406.47;4902283;29;19953;-72
2022/05/27 12:55:41;;;;;;;;;;;;;;;27.26;100.00;98393.19;4901949;29;20211;-72
2022/05/27 13:01:00;;;;;;;;;;;;;;;27.20;100.00;98395.19;4918483;29;19974;-72
2022/05/27 13:03:34;;;;;;;;;;;;;;;27.20;100.00;98387.38;4903212;29;19958;-72
2022/05/27 13:06:08;;;;;;;;;;;;;;;27.20;100.00;98395.19;4902254;29;19967;-72
2022/05/27 13:08:43;;;;;;;;;;;;;;;27.08;100.00;98379.16;4901729;29;20337;-72
2022/05/27 13:11:14;;;;;;;;;;;;;;;27.12;100.00;98382.63;4901786;29;19952;-72
2022/05/27 13:13:42;;;;;;;;;;;;;;;27.07;100.00;98380.47;4901638;29;19949;-72
2022/05/27 13:16:22;;;;;;;;;;;;;;;26.90;100.00;98385.28;4901755;29;19958;-72
2022/05/27 13:18:51;;;;;;;;;;;;;;;26.84;100.00;98379.47;4902210;29;19970;-72
2022/05/27 13:21:18;;;;;;;;;;;;;;;26.81;100.00;98376.81;4902341;29;19990;-72
2022/05/27 13:23:52;;;;;;;;;;;;;;;26.66;100.00;98377.69;4915677;29;20209;-72
2022/05/27 13:26:29;;;;;;;;;;;;;;;26.67;100.00;98372.72;4905694;29;19955;-72
2022/05/27 13:28:58;;;;;;;;;;;;;;;26.73;100.00;98371.50;4905674;29;20244;-72
2022/05/27 13:31:37;;;;;;;;;;;;;;;26.71;100.00;98356.06;4906046;29;20029;-72
2022/05/27 13:34:05;;;;;;;;;;;;;;;26.74;100.00;98357.94;4907766;29;19963;-72
2022/05/27 13:36:35;;;;;;;;;;;;;;;26.77;100.00;98351.22;4905062;29;19949;-72
2022/05/27 13:39:05;;;;;;;;;;;;;;;26.79;100.00;98340.03;4906492;29;20251;-72
2022/05/27 13:41:43;;;;;;;;;;;;;;;26.88;100.00;98344.78;4908636;29;20384;-72
2022/05/27 13:44:12;;;;;;;;;;;;;;;26.87;100.00;98334.63;4905743;29;19955;-72
2022/05/27 13:46:44;;;;;;;;;;;;;;;26.93;100.00;98341.97;4905507;29;19956;-72
2022/05/27 13:49:41;;;;;;;;;;;;;;;26.92;100.00;98340.41;4905416;29;19958;-72
2022/05/27 13:52:15;;;;;;;;;;;;;;;26.95;100.00;98330.00;4893467;29;19980;-72
2022/05/27 13:54:43;;;;;;;;;;;;;;;26.94;100.00;98323.47;4905397;29;19950;-72
2022/05/27 13:57:11;;;;;;;;;;;;;;;26.96;100.00;98325.81;4905337;29;19951;-72
2022/05/27 13:59:42;;;;;;;;;;;;;;;26.86;100.00;98319.47;4904547;29;19955;-72
2022/05/27 14:02:17;;;;;;;;;;;;;;;26.93;100.00;98316.16;4905291;29;19951;-72
2022/05/27 14:04:47;;;;;;;;;;;;;;;27.03;100.00;98313.88;4904595;29;19958;-72
2022/05/27 14:07:40;;;;;;;;;;;;;;;27.14;100.00;98305.38;4905134;29;19951;-72
2022/05/27 14:10:10;;;;;;;;;;;;;;;27.17;100.00;98302.25;4900211;29;20376;-72
2022/05/27 14:12:38;;;;;;;;;;;;;;;27.17;100.00;98293.66;4904348;29;19950;-72
2022/05/27 14:15:12;;;;;;;;;;;;;;;27.17;100.00;98293.66;4904682;29;19952;-72
2022/05/27 14:17:41;;;;;;;;;;;;;;;27.16;100.00;98294.97;4904565;29;19970;-72
2022/05/27 14:20:11;;;;;;;;;;;;;;;27.21;100.00;98279.84;4904416;29;19950;-72
2022/05/27 14:22:44;;;;;;;;;;;;;;;27.24;100.00;98270.19;4904893;29;20281;-72
2022/05/27 14:25:27;;;;;;;;;;;;;;;27.22;100.00;98272.81;4904600;29;19953;-72
2022/05/27 14:27:59;;;;;;;;;;;;;;;27.25;100.00;98263.19;4905017;29;19951;-72
2022/05/27 14:30:34;;;;;;;;;;;;;;;27.25;100.00;98266.03;4912611;29;19950;-72
2022/05/27 14:33:05;;;;;;;;;;;;;;;27.29;100.00;98257.97;4914260;29;19952;-72
2022/05/27 14:35:32;;;;;;;;;;;;;;;27.29;100.00;98257.22;4903523;29;19951;-72
2022/05/27 14:38:10;;;;;;;;;;;;;;;27.31;100.00;98251.72;4907586;29;20073;-72
2022/05/27 14:40:40;;;;;;;;;;;;;;;27.41;100.00;98250.25;4929047;29;19978;-72
2022/05/27 14:43:20;;;;;;;;;;;;;;;27.48;100.00;98246.91;4921451;29;19955;-72
2022/05/27 14:45:55;;;;;;;;;;;;;;;27.49;100.00;98253.41;4904186;29;19953;-72
2022/05/27 14:48:35;;;;;;;;;;;;;;;27.55;100.00;98251.38;4904123;29;19957;-72
2022/05/27 14:51:21;;;;;;;;;;;;;;;27.52;100.00;98247.44;4904060;29;19959;-72
2022/05/27 14:53:49;;;;;;;;;;;;;;;27.50;100.00;98241.44;4903644;29;20370;-72
2022/05/27 14:56:25;;;;;;;;;;;;;;;27.54;100.00;98244.03;4914701;29;20352;-72
2022/05/27 14:59:01;;;;;;;;;;;;;;;27.48;100.00;98234.63;4940788;29;19952;-72
2022/05/27 15:01:40;;;;;;;;;;;;;;;27.44;100.00;98231.97;4919742;29;19984;-72
2022/05/27 15:04:13;;;;;;;;;;;;;;;27.59;100.00;98228.94;4922296;29;19953;-72
2022/05/27 15:06:42;;;;;;;;;;;;;;;27.59;100.00;98223.19;4922758;29;19959;-72
2022/05/27 15:09:18;;;;;;;;;;;;;;;27.50;100.00;98215.56;4914029;29;19959;-72
2022/05/27 15:11:45;;;;;;;;;;;;;;;27.44;100.00;98222.59;4903734;29;19962;-72
2022/05/27 15:14:26;;;;;;;;;;;;;;;27.47;100.00;98216.59;4904067;29;19957;-72
2022/05/27 15:16:55;;;;;;;;;;;;;;;27.47;100.00;98213.72;4902548;29;19960;-72
2022/05/27 15:19:23;;;;;;;;;;;;;;;27.51;100.00;98207.75;4905210;29;19951;-72
2022/05/27 15:21:55;;;;;;;;;;;;;;;27.52;100.00;98209.31;4921995;29;19973;-72
2022/05/27 15:24:22;;;;;;;;;;;;;;;27.50;100.00;98203.28;4922031;29;19949;-72
2022/05/27 15:35:47;;;;;;;;;;;;;;;27.48;100.00;98186.59;4908200;29;20347;-72
2022/05/27 15:38:16;;;;;;;;;;;;;;;27.47;100.00;98170.66;4901893;29;19965;-72
2022/05/27 15:40:44;;;;;;;;;;;;;;;27.48;100.00;98177.97;4921962;29;19952;-72
2022/05/27 15:43:20;;;;;;;;;;;;;;;27.51;100.00;98168.31;4910144;29;19951;-72
2022/05/27 15:45:48;;;;;;;;;;;;;;;27.48;100.00;98169.34;4916623;29;20343;-72
2022/05/27 15:48:17;;;;;;;;;;;;;;;27.48;100.00;98171.44;4919667;29;20266;-72
2022/05/27 15:50:45;;;;;;;;;;;;;;;27.38;100.00;98165.13;4913948;29;19959;-72
2022/05/27 15:53:13;;;;;;;;;;;;;;;27.34;100.00;98164.53;4911753;29;19958;-72
2022/05/27 15:55:41;;;;;;;;;;;;;;;27.29;100.00;98160.34;4910539;29;19954;-72
2022/05/27 15:58:09;;;;;;;;;;;;;;;27.28;100.00;98158.78;4914482;29;20244;-72
2022/05/27 16:00:37;;;;;;;;;;;;;;;27.24;100.00;98157.47;4906362;29;19954;-72
2022/05/27 16:03:05;;;;;;;;;;;;;;;27.23;100.00;98156.66;4914168;29;20267;-72
2022/05/27 16:05:35;;;;;;;;;;;;;;;27.30;100.00;98143.91;4914305;29;19952;-72
2022/05/27 16:08:03;;;;;;;;;;;;;;;27.20;100.00;98137.59;4914737;29;20239;-72
2022/05/27 16:10:33;;;;;;;;;;;;;;;27.23;100.00;98136.56;4920896;29;19954;-72
2022/05/27 16:13:02;;;;;;;;;;;;;;;27.21;100.00;98141.25;4908277;29;19972;-72
2022/05/27 16:15:29;;;;;;;;;;;;;;;27.21;100.00;98141.25;4908367;29;19958;-72
2022/05/27 16:17:57;;;;;;;;;;;;;;;27.16;100.00;98134.19;4913262;29;19974;-72
2022/05/27 16:20:29;;;;;;;;;;;;;;;27.14;100.00;98130.25;4924393;29;19957;-72
2022/05/27 16:22:57;;;;;;;;;;;;;;;27.10;100.00;98129.69;4931111;29;20356;-72
2022/05/27 16:25:27;;;;;;;;;;;;;;;27.15;100.00;98126.06;4939840;29;19950;-72
2022/05/27 16:27:55;;;;;;;;;;;;;;;27.12;100.00;98127.13;4940588;29;19954;-72
2022/05/27 16:30:24;;;;;;;;;;;;;;;27.14;100.00;98121.66;4939602;29;19947;-72
2022/05/27 16:32:53;;;;;;;;;;;;;;;27.08;100.00;98115.09;4940385;29;20354;-72
2022/05/27 16:35:21;;;;;;;;;;;;;;;27.11;100.00;98114.84;4939790;29;19950;-72
2022/05/27 16:37:49;;;;;;;;;;;;;;;27.02;100.00;98108.53;4939673;29;19949;-72
2022/05/27 16:40:16;;;;;;;;;;;;;;;26.92;100.00;98102.22;4940236;29;19951;-72
2022/05/27 16:42:44;;;;;;;;;;;;;;;26.85;100.00;98105.56;4940288;29;19964;-72
2022/05/27 16:45:13;;;;;;;;;;;;;;;26.82;100.00;98095.13;4929079;29;19952;-72
2022/05/27 16:47:43;;;;;;;;;;;;;;;26.78;100.00;98103.16;4888999;29;19950;-72
2022/05/27 16:50:13;;;;;;;;;;;;;;;26.73;100.00;98101.81;4907613;29;20369;-72
2022/05/27 16:52:40;;;;;;;;;;;;;;;26.74;100.00;98099.72;4904983;29;19951;-72
2022/05/27 16:55:08;;;;;;;;;;;;;;;26.71;100.00;98100.75;4905934;29;19950;-72
2022/05/27 16:57:36;;;;;;;;;;;;;;;26.65;100.00;98099.94;4911219;29;19960;-72
2022/05/27 17:00:06;;;;;;;;;;;;;;;26.61;100.00;98103.03;4917765;29;19957;-72
2022/05/27 17:02:33;;;;;;;;;;;;;;;26.58;100.00;98098.31;4920043;29;19967;-72
2022/05/27 17:05:01;;;;;;;;;;;;;;;26.64;100.00;98101.22;4899121;29;20374;-72
2022/05/27 17:07:29;;;;;;;;;;;;;;;26.57;100.00;98096.75;4905397;29;19965;-72
2022/05/27 17:09:58;;;;;;;;;;;;;;;26.56;100.00;98092.31;4911611;29;19955;-72
2022/05/27 17:12:26;;;;;;;;;;;;;;;26.51;100.00;98095.13;4907367;29;19950;-72
2022/05/27 17:14:53;;;;;;;;;;;;;;;26.44;100.00;98087.00;4912017;29;20331;-72
2022/05/27 17:17:21;;;;;;;;;;;;;;;26.38;100.00;98084.09;4917372;29;19971;-72
2022/05/27 17:19:48;;;;;;;;;;;;;;;26.40;100.00;98090.13;4911033;29;20246;-71
2022/05/27 17:22:16;;;;;;;;;;;;;;;26.33;100.00;98093.44;4914602;29;19968;-72
2022/05/27 17:24:43;;;;;;;;;;;;;;;26.31;100.00;98090.28;4920606;29;19959;-72
2022/05/27 17:27:11;;;;;;;;;;;;;;;26.24;100.00;98079.28;4917512;29;19952;-72
2022/05/27 17:29:38;;;;;;;;;;;;;;;26.19;100.00;98085.00;4905561;29;19954;-72
2022/05/27 17:32:06;;;;;;;;;;;;;;;26.19;100.00;98082.13;4919701;29;20013;-72
2022/05/27 17:34:40;;;;;;;;;;;;;;;26.14;100.00;98088.59;4920062;29;19982;-72
2022/05/27 17:37:07;;;;;;;;;;;;;;;26.10;100.00;98080.19;4920295;29;19959;-72
2022/05/27 17:39:35;;;;;;;;;;;;;;;26.08;100.00;98077.03;4920351;29;19962;-72
2022/05/27 17:42:02;;;;;;;;;;;;;;;26.05;100.00;98075.19;4920093;29;19971;-72
2022/05/27 17:44:30;;;;;;;;;;;;;;;26.03;100.00;98069.19;4920302;29;19945;-72
2022/05/27 17:52:28;;;;;;;;;;;;;;;25.94;100.00;98069.38;4920284;29;19952;-72
2022/05/27 17:54:56;;;;;;;;;;;;;;;25.90;100.00;98065.94;4919867;29;20230;-72
2022/05/27 17:57:23;;;;;;;;;;;;;;;25.83;100.00;98069.25;4920382;29;20363;-72
2022/05/27 17:59:51;;;;;;;;;;;;;;;25.75;100.00;98057.47;4920535;29;19945;-72
2022/05/27 18:02:18;;;;;;;;;;;;;;;25.63;100.00;98063.59;4920036;29;19969;-72